sensor_id;sensor_type;location;lat;lon;timestamp;pressure;altitude;pressure_sealevel;temperature;humidity
62011;BME280;47967;51.756;10.174;2023-04-12T04:04:43;98823.97;;;5.83;69.42
62011;BME280;47967;51.756;10.174;2023-04-12T04:08:50;98822.97;;;6.05;67.83
62011;BME280;47967;51.756;10.174;2023-04-12T04:12:54;98815.28;;;6.24;66.94
62011;BME280;47967;51.756;10.174;2023-04-12T04:16:57;98806.03;;;6.27;66.86
62011;BME280;47967;51.756;10.174;2023-04-12T04:21:01;98800.25;;;6.30;66.33
62011;BME280;47967;51.756;10.174;2023-04-12T04:25:08;98800.88;;;6.25;67.57
62011;BME280;47967;51.756;10.174;2023-04-12T04:29:13;98792.03;;;6.31;66.54
62011;BME280;47967;51.756;10.174;2023-04-12T04:33:16;98786.00;;;6.22;67.12
62011;BME280;47967;51.756;10.174;2023-04-12T04:37:22;98789.38;;;6.38;66.70
62011;BME280;47967;51.756;10.174;2023-04-12T04:41:25;98778.91;;;6.43;65.88
62011;BME280;47967;51.756;10.174;2023-04-12T04:45:32;98768.81;;;6.45;66.76
62011;BME280;47967;51.756;10.174;2023-04-12T04:49:34;98764.06;;;6.40;66.67
62011;BME280;47967;51.756;10.174;2023-04-12T04:53:47;98753.34;;;6.40;67.45
62011;BME280;47967;51.756;10.174;2023-04-12T04:57:51;98753.56;;;6.46;67.57
62011;BME280;47967;51.756;10.174;2023-04-12T05:01:53;98741.41;;;6.43;67.22
62011;BME280;47967;51.756;10.174;2023-04-12T05:05:56;98745.78;;;6.51;66.92
62011;BME280;47967;51.756;10.174;2023-04-12T05:30:10;98727.16;;;6.98;65.49
62011;BME280;47967;51.756;10.174;2023-04-12T05:34:12;98719.53;;;7.01;65.03
62011;BME280;47967;51.756;10.174;2023-04-12T05:38:24;98716.22;;;6.93;64.38
62011;BME280;47967;51.756;10.174;2023-04-12T05:42:30;98702.03;;;7.05;63.75
62011;BME280;47967;51.756;10.174;2023-04-12T05:46:34;98714.22;;;7.08;63.91
62011;BME280;47967;51.756;10.174;2023-04-12T05:50:38;98692.53;;;6.96;64.06
62011;BME280;47967;51.756;10.174;2023-04-12T05:54:41;98683.44;;;6.97;64.04
62011;BME280;47967;51.756;10.174;2023-04-12T05:58:48;98673.94;;;6.88;64.42
62011;BME280;47967;51.756;10.174;2023-04-12T06:02:52;98666.31;;;6.85;64.47
62011;BME280;47967;51.756;10.174;2023-04-12T06:06:55;98652.09;;;6.98;64.59
62011;BME280;47967;51.756;10.174;2023-04-12T06:10:58;98653.34;;;7.22;64.00
62011;BME280;47967;51.756;10.174;2023-04-12T06:15:00;98637.66;;;7.39;63.83
62011;BME280;47967;51.756;10.174;2023-04-12T06:19:04;98636.59;;;7.67;63.08
62011;BME280;47967;51.756;10.174;2023-04-12T06:23:07;98628.47;;;7.94;62.42
62011;BME280;47967;51.756;10.174;2023-04-12T06:27:10;98622.16;;;8.27;61.79
62011;BME280;47967;51.756;10.174;2023-04-12T06:31:12;98612.66;;;8.70;60.84
62011;BME280;47967;51.756;10.174;2023-04-12T06:35:17;98602.75;;;8.95;59.55
62011;BME280;47967;51.756;10.174;2023-04-12T06:39:20;98591.00;;;9.15;58.90
62011;BME280;47967;51.756;10.174;2023-04-12T06:43:23;98582.56;;;9.37;59.10
62011;BME280;47967;51.756;10.174;2023-04-12T06:47:25;98572.94;;;9.48;58.37
62011;BME280;47967;51.756;10.174;2023-04-12T06:51:29;98560.50;;;9.47;58.17
62011;BME280;47967;51.756;10.174;2023-04-12T06:55:32;98560.22;;;9.36;57.52
62011;BME280;47967;51.756;10.174;2023-04-12T06:59:34;98549.00;;;9.58;57.49
62011;BME280;47967;51.756;10.174;2023-04-12T07:03:37;98543.97;;;9.80;58.06
62011;BME280;47967;51.756;10.174;2023-04-12T07:07:41;98536.25;;;9.84;57.98
62011;BME280;47967;51.756;10.174;2023-04-12T07:11:43;98530.88;;;9.84;58.03
62011;BME280;47967;51.756;10.174;2023-04-12T07:15:47;98538.22;;;9.95;57.88
62011;BME280;47967;51.756;10.174;2023-04-12T07:19:50;98530.78;;;10.09;57.65
62011;BME280;47967;51.756;10.174;2023-04-12T07:23:55;98524.53;;;10.27;57.43
62011;BME280;47967;51.756;10.174;2023-04-12T07:27:57;98520.53;;;10.30;57.66
62011;BME280;47967;51.756;10.174;2023-04-12T07:32:00;98507.44;;;10.33;58.13
62011;BME280;47967;51.756;10.174;2023-04-12T07:36:03;98504.19;;;10.43;58.04
62011;BME280;47967;51.756;10.174;2023-04-12T07:40:08;98503.56;;;10.60;57.97
62011;BME280;47967;51.756;10.174;2023-04-12T07:44:10;98495.22;;;10.61;58.32
62011;BME280;47967;51.756;10.174;2023-04-12T07:48:13;98482.19;;;10.58;58.23
62011;BME280;47967;51.756;10.174;2023-04-12T07:52:16;98473.75;;;10.66;58.14
62011;BME280;47967;51.756;10.174;2023-04-12T07:56:20;98461.22;;;10.84;58.12
62011;BME280;47967;51.756;10.174;2023-04-12T08:00:23;98461.56;;;10.87;58.00
62011;BME280;47967;51.756;10.174;2023-04-12T08:04:26;98445.28;;;11.06;58.23
62011;BME280;47967;51.756;10.174;2023-04-12T08:08:29;98437.28;;;11.23;57.73
62011;BME280;47967;51.756;10.174;2023-04-12T08:12:33;98430.22;;;11.34;57.36
62011;BME280;47967;51.756;10.174;2023-04-12T08:16:35;98433.22;;;11.37;57.84
62011;BME280;47967;51.756;10.174;2023-04-12T08:20:38;98425.09;;;11.61;57.53
62011;BME280;47967;51.756;10.174;2023-04-12T08:24:41;98428.56;;;11.33;57.70
62011;BME280;47967;51.756;10.174;2023-04-12T08:28:45;98415.19;;;11.26;58.17
62011;BME280;47967;51.756;10.174;2023-04-12T08:32:48;98414.72;;;11.29;58.32
62011;BME280;47967;51.756;10.174;2023-04-12T08:36:51;98408.16;;;11.25;59.11
62011;BME280;47967;51.756;10.174;2023-04-12T08:40:54;98409.88;;;11.31;59.68
62011;BME280;47967;51.756;10.174;2023-04-12T08:45:03;98393.22;;;11.34;60.72
62011;BME280;47967;51.756;10.174;2023-04-12T08:49:06;98405.25;;;11.03;61.48
62011;BME280;47967;51.756;10.174;2023-04-12T08:53:09;98390.16;;;10.90;63.04
62011;BME280;47967;51.756;10.174;2023-04-12T08:57:12;98379.81;;;10.75;64.59
62011;BME280;47967;51.756;10.174;2023-04-12T09:01:19;98381.94;;;10.73;64.86
62011;BME280;47967;51.756;10.174;2023-04-12T09:05:27;98374.56;;;10.68;65.56
62011;BME280;47967;51.756;10.174;2023-04-12T09:09:40;98363.66;;;10.39;67.29
62011;BME280;47967;51.756;10.174;2023-04-12T09:13:42;98355.41;;;10.34;66.77
62011;BME280;47967;51.756;10.174;2023-04-12T09:17:46;98358.31;;;10.09;67.60
62011;BME280;47967;51.756;10.174;2023-04-12T09:21:54;98347.19;;;10.17;68.71
62011;BME280;47967;51.756;10.174;2023-04-12T09:25:57;98332.06;;;10.16;69.49
62011;BME280;47967;51.756;10.174;2023-04-12T09:30:06;98320.59;;;10.33;69.15
62011;BME280;47967;51.756;10.174;2023-04-12T09:34:10;98325.06;;;10.27;70.56
62011;BME280;47967;51.756;10.174;2023-04-12T09:38:13;98309.13;;;10.25;71.08
62011;BME280;47967;51.756;10.174;2023-04-12T09:42:16;98296.22;;;10.16;71.48
62011;BME280;47967;51.756;10.174;2023-04-12T09:46:33;98302.19;;;10.30;71.56
62011;BME280;47967;51.756;10.174;2023-04-12T09:50:37;98288.00;;;10.22;71.77
62011;BME280;47967;51.756;10.174;2023-04-12T09:54:42;98278.19;;;10.28;72.26
62011;BME280;47967;51.756;10.174;2023-04-12T09:58:46;98264.22;;;10.55;71.89
62011;BME280;47967;51.756;10.174;2023-04-12T10:02:50;98263.78;;;10.46;71.81
62011;BME280;47967;51.756;10.174;2023-04-12T10:06:58;98265.13;;;10.61;72.04
62011;BME280;47967;51.756;10.174;2023-04-12T10:11:01;98255.56;;;10.53;72.48
62011;BME280;47967;51.756;10.174;2023-04-12T10:15:05;98257.53;;;10.69;72.60
62011;BME280;47967;51.756;10.174;2023-04-12T10:19:13;98257.25;;;10.83;71.96
62011;BME280;47967;51.756;10.174;2023-04-12T10:23:18;98248.84;;;10.55;71.35
62011;BME280;47967;51.756;10.174;2023-04-12T10:27:24;98228.81;;;10.51;72.63
62011;BME280;47967;51.756;10.174;2023-04-12T10:31:28;98218.66;;;10.41;72.80
62011;BME280;47967;51.756;10.174;2023-04-12T10:35:49;98206.75;;;10.54;73.61
62011;BME280;47967;51.756;10.174;2023-04-12T10:39:53;98210.66;;;10.47;73.52
62011;BME280;47967;51.756;10.174;2023-04-12T10:44:24;98200.09;;;10.33;73.46
62011;BME280;47967;51.756;10.174;2023-04-12T10:48:30;98196.13;;;10.24;73.86
62011;BME280;47967;51.756;10.174;2023-04-12T10:52:33;98199.16;;;10.28;74.77
62011;BME280;47967;51.756;10.174;2023-04-12T10:56:40;98184.09;;;10.15;74.84
62011;BME280;47967;51.756;10.174;2023-04-12T11:01:09;98197.22;;;10.11;75.28
62011;BME280;47967;51.756;10.174;2023-04-12T11:05:12;98183.84;;;10.16;75.33
62011;BME280;47967;51.756;10.174;2023-04-12T11:09:24;98192.63;;;10.35;75.15
62011;BME280;47967;51.756;10.174;2023-04-12T11:13:27;98189.16;;;10.64;74.95
62011;BME280;47967;51.756;10.174;2023-04-12T11:17:31;98166.34;;;10.83;74.54
62011;BME280;47967;51.756;10.174;2023-04-12T11:21:37;98170.63;;;10.96;74.28
62011;BME280;47967;51.756;10.174;2023-04-12T11:25:40;98167.38;;;10.82;74.21
62011;BME280;47967;51.756;10.174;2023-04-12T11:29:43;98165.31;;;10.44;74.77
62011;BME280;47967;51.756;10.174;2023-04-12T11:33:47;98160.72;;;10.44;75.42
62011;BME280;47967;51.756;10.174;2023-04-12T11:37:50;98164.38;;;10.26;75.94
62011;BME280;47967;51.756;10.174;2023-04-12T11:41:53;98151.22;;;10.53;75.24
62011;BME280;47967;51.756;10.174;2023-04-12T11:45:56;98136.38;;;10.68;74.35
62011;BME280;47967;51.756;10.174;2023-04-12T11:50:01;98136.16;;;10.69;74.50
62011;BME280;47967;51.756;10.174;2023-04-12T11:54:04;98131.84;;;10.56;75.13
62011;BME280;47967;51.756;10.174;2023-04-12T11:58:06;98125.69;;;10.44;75.69
62011;BME280;47967;51.756;10.174;2023-04-12T12:02:09;98129.03;;;10.63;75.25
62011;BME280;47967;51.756;10.174;2023-04-12T12:06:26;98126.31;;;10.63;75.03
62011;BME280;47967;51.756;10.174;2023-04-12T12:10:29;98120.94;;;10.63;74.78
62011;BME280;47967;51.756;10.174;2023-04-12T12:14:51;98118.66;;;10.72;74.90
62011;BME280;47967;51.756;10.174;2023-04-12T12:18:55;98115.09;;;10.54;75.26
62011;BME280;47967;51.756;10.174;2023-04-12T12:22:59;98116.63;;;10.79;75.11
62011;BME280;47967;51.756;10.174;2023-04-12T12:27:02;98110.19;;;10.97;75.04
62011;BME280;47967;51.756;10.174;2023-04-12T12:31:05;98099.16;;;10.99;74.64
62011;BME280;47967;51.756;10.174;2023-04-12T12:35:10;98096.69;;;10.97;75.57
62011;BME280;47967;51.756;10.174;2023-04-12T12:39:14;98089.84;;;11.07;75.26
62011;BME280;47967;51.756;10.174;2023-04-12T12:43:17;98084.03;;;10.98;75.14
62011;BME280;47967;51.756;10.174;2023-04-12T12:47:21;98078.09;;;10.84;76.22
62011;BME280;47967;51.756;10.174;2023-04-12T12:51:23;98066.59;;;10.88;76.13
62011;BME280;47967;51.756;10.174;2023-04-12T12:55:29;98077.19;;;11.07;75.60
62011;BME280;47967;51.756;10.174;2023-04-12T12:59:32;98071.19;;;11.22;75.38
62011;BME280;47967;51.756;10.174;2023-04-12T13:03:34;98076.59;;;11.05;75.56
62011;BME280;47967;51.756;10.174;2023-04-12T13:07:37;98068.56;;;10.93;75.58
62011;BME280;47967;51.756;10.174;2023-04-12T13:11:41;98064.81;;;11.11;76.24
62011;BME280;47967;51.756;10.174;2023-04-12T13:15:44;98052.78;;;11.02;76.34
62011;BME280;47967;51.756;10.174;2023-04-12T13:19:48;98064.88;;;11.16;76.04
62011;BME280;47967;51.756;10.174;2023-04-12T13:23:52;98058.91;;;10.97;76.61
62011;BME280;47967;51.756;10.174;2023-04-12T13:27:55;98051.56;;;10.93;77.20
62011;BME280;47967;51.756;10.174;2023-04-12T13:31:58;98048.63;;;10.94;76.88
62011;BME280;47967;51.756;10.174;2023-04-12T13:36:01;98055.47;;;11.02;77.02
62011;BME280;47967;51.756;10.174;2023-04-12T13:40:04;98042.00;;;11.02;76.78
62011;BME280;47967;51.756;10.174;2023-04-12T13:44:09;98034.06;;;10.95;77.55
62011;BME280;47967;51.756;10.174;2023-04-12T13:48:11;98030.72;;;11.05;77.21
62011;BME280;47967;51.756;10.174;2023-04-12T13:52:14;98021.22;;;11.02;77.23
62011;BME280;47967;51.756;10.174;2023-04-12T13:56:17;98015.63;;;11.26;76.95
62011;BME280;47967;51.756;10.174;2023-04-12T14:00:21;98020.97;;;11.21;77.26
62011;BME280;47967;51.756;10.174;2023-04-12T14:04:26;98007.22;;;11.23;77.46
62011;BME280;47967;51.756;10.174;2023-04-12T14:08:28;97995.34;;;11.24;77.28
62011;BME280;47967;51.756;10.174;2023-04-12T14:12:31;98003.78;;;11.27;77.16
62011;BME280;47967;51.756;10.174;2023-04-12T14:16:35;97989.28;;;11.33;77.13
62011;BME280;47967;51.756;10.174;2023-04-12T14:20:38;97980.38;;;11.33;76.46
62011;BME280;47967;51.756;10.174;2023-04-12T14:24:40;97982.44;;;11.48;76.28
62011;BME280;47967;51.756;10.174;2023-04-12T14:28:43;97983.50;;;11.47;76.36
62011;BME280;47967;51.756;10.174;2023-04-12T14:32:47;97989.59;;;11.37;76.81
62011;BME280;47967;51.756;10.174;2023-04-12T14:36:50;97990.34;;;11.32;76.76
62011;BME280;47967;51.756;10.174;2023-04-12T14:40:52;97990.34;;;11.32;77.50
62011;BME280;47967;51.756;10.174;2023-04-12T14:44:55;97993.41;;;11.41;77.12
62011;BME280;47967;51.756;10.174;2023-04-12T14:48:59;97991.94;;;11.50;76.46
62011;BME280;47967;51.756;10.174;2023-04-12T14:53:02;97989.13;;;11.40;76.98
62011;BME280;47967;51.756;10.174;2023-04-12T14:57:04;98001.16;;;11.54;77.34
62011;BME280;47967;51.756;10.174;2023-04-12T15:01:09;97986.47;;;11.67;77.01
62011;BME280;47967;51.756;10.174;2023-04-12T15:05:13;97973.78;;;11.90;76.33
62011;BME280;47967;51.756;10.174;2023-04-12T15:09:16;97974.72;;;11.79;76.46
62011;BME280;47967;51.756;10.174;2023-04-12T15:13:19;97962.66;;;12.09;76.43
62011;BME280;47967;51.756;10.174;2023-04-12T15:17:26;97962.91;;;12.35;75.35
62011;BME280;47967;51.756;10.174;2023-04-12T15:21:32;97965.69;;;12.45;74.98
62011;BME280;47967;51.756;10.174;2023-04-12T15:25:35;97953.28;;;12.49;75.81
62011;BME280;47967;51.756;10.174;2023-04-12T15:29:37;97938.97;;;12.86;74.77
62011;BME280;47967;51.756;10.174;2023-04-12T15:33:40;97936.47;;;12.74;74.07
62011;BME280;47967;51.756;10.174;2023-04-12T15:37:44;97926.72;;;12.73;74.42
62011;BME280;47967;51.756;10.174;2023-04-12T15:41:47;97933.00;;;12.46;75.53
62011;BME280;47967;51.756;10.174;2023-04-12T15:45:49;97940.47;;;12.34;76.42
62011;BME280;47967;51.756;10.174;2023-04-12T15:49:54;97939.69;;;12.11;77.52
62011;BME280;47967;51.756;10.174;2023-04-12T15:53:58;97935.47;;;12.21;77.64
62011;BME280;47967;51.756;10.174;2023-04-12T15:58:01;97935.06;;;12.34;77.16
62011;BME280;47967;51.756;10.174;2023-04-12T16:02:03;97939.41;;;12.08;77.84
62011;BME280;47967;51.756;10.174;2023-04-12T16:06:09;97937.56;;;11.91;79.01
62011;BME280;47967;51.756;10.174;2023-04-12T16:10:13;97937.78;;;11.84;79.63
62011;BME280;47967;51.756;10.174;2023-04-12T16:14:16;97936.88;;;11.79;80.23
62011;BME280;47967;51.756;10.174;2023-04-12T16:18:18;97936.72;;;11.85;79.72
62011;BME280;47967;51.756;10.174;2023-04-12T16:22:21;97945.31;;;11.82;80.46
62011;BME280;47967;51.756;10.174;2023-04-12T16:26:25;97933.19;;;11.63;81.05
62011;BME280;47967;51.756;10.174;2023-04-12T16:30:27;97923.41;;;11.57;81.34
62011;BME280;47967;51.756;10.174;2023-04-12T16:34:30;97919.13;;;11.61;81.39
62011;BME280;47967;51.756;10.174;2023-04-12T16:38:34;97925.63;;;11.87;80.32
62011;BME280;47967;51.756;10.174;2023-04-12T16:42:38;97933.97;;;11.80;80.21
62011;BME280;47967;51.756;10.174;2023-04-12T17:50:46;97939.88;;;12.05;79.97
62011;BME280;47967;51.756;10.174;2023-04-12T17:54:49;97966.88;;;11.77;81.25
62011;BME280;47967;51.756;10.174;2023-04-12T17:58:52;97992.34;;;11.03;88.64
62011;BME280;47967;51.756;10.174;2023-04-12T18:02:55;97968.00;;;10.18;89.88
62011;BME280;47967;51.756;10.174;2023-04-12T18:06:59;97978.06;;;10.22;91.67
62011;BME280;47967;51.756;10.174;2023-04-12T18:11:02;97983.47;;;10.22;91.99
62011;BME280;47967;51.756;10.174;2023-04-12T18:15:07;97988.25;;;10.03;92.09
62011;BME280;47967;51.756;10.174;2023-04-12T18:19:10;97995.66;;;9.96;92.63
62011;BME280;47967;51.756;10.174;2023-04-12T18:23:15;98003.56;;;10.03;93.11
62011;BME280;47967;51.756;10.174;2023-04-12T18:27:17;98013.56;;;10.02;93.37
62011;BME280;47967;51.756;10.174;2023-04-12T18:31:20;98012.88;;;9.95;93.60
62011;BME280;47967;51.756;10.174;2023-04-12T18:35:23;98030.69;;;9.96;93.61
62011;BME280;47967;51.756;10.174;2023-04-12T18:39:27;98044.00;;;10.03;93.68
62011;BME280;47967;51.756;10.174;2023-04-12T18:43:30;98056.84;;;10.13;93.95
62011;BME280;47967;51.756;10.174;2023-04-12T18:47:32;98052.50;;;10.12;94.30
62011;BME280;47967;51.756;10.174;2023-04-12T18:51:35;98055.69;;;10.08;93.75
62011;BME280;47967;51.756;10.174;2023-04-12T18:55:39;98067.88;;;10.11;93.99
62011;BME280;47967;51.756;10.174;2023-04-12T18:59:42;98091.38;;;9.75;93.21
62011;BME280;47967;51.756;10.174;2023-04-12T19:03:48;98100.31;;;9.40;92.38
62011;BME280;47967;51.756;10.174;2023-04-12T19:07:50;98109.47;;;8.96;87.54
62011;BME280;47967;51.756;10.174;2023-04-12T19:11:54;98108.63;;;8.84;87.23
62011;BME280;47967;51.756;10.174;2023-04-12T19:15:57;98106.44;;;8.62;86.39
62011;BME280;47967;51.756;10.174;2023-04-12T19:20:00;98107.97;;;8.40;85.72
62011;BME280;47967;51.756;10.174;2023-04-12T19:24:03;98108.97;;;8.27;85.68
62011;BME280;47967;51.756;10.174;2023-04-12T19:28:07;98126.00;;;8.21;83.24
62011;BME280;47967;51.756;10.174;2023-04-12T19:32:11;98131.81;;;8.17;81.73
62011;BME280;47967;51.756;10.174;2023-04-12T19:36:13;98142.13;;;8.21;81.88
62011;BME280;47967;51.756;10.174;2023-04-12T19:40:16;98147.84;;;8.24;81.53
62011;BME280;47967;51.756;10.174;2023-04-12T19:44:20;98150.44;;;8.31;81.83
62011;BME280;47967;51.756;10.174;2023-04-12T19:48:23;98150.69;;;8.29;82.02
62011;BME280;47967;51.756;10.174;2023-04-12T19:52:26;98164.56;;;8.45;82.50
62011;BME280;47967;51.756;10.174;2023-04-12T19:56:29;98169.50;;;8.48;82.86
62011;BME280;47967;51.756;10.174;2023-04-12T20:00:33;98181.34;;;8.59;82.26
62011;BME280;47967;51.756;10.174;2023-04-12T20:04:39;98202.59;;;8.48;82.27
62011;BME280;47967;51.756;10.174;2023-04-12T20:08:42;98209.22;;;8.64;82.02
62011;BME280;47967;51.756;10.174;2023-04-12T20:12:44;98212.63;;;8.53;82.03
62011;BME280;47967;51.756;10.174;2023-04-12T20:16:48;98220.13;;;8.51;82.10
62011;BME280;47967;51.756;10.174;2023-04-12T20:20:56;98221.59;;;8.47;82.46
62011;BME280;47967;51.756;10.174;2023-04-12T20:24:59;98238.78;;;8.46;82.65
62011;BME280;47967;51.756;10.174;2023-04-12T20:29:02;98243.84;;;8.54;82.77
62011;BME280;47967;51.756;10.174;2023-04-12T20:33:06;98259.84;;;8.49;83.23
62011;BME280;47967;51.756;10.174;2023-04-12T20:37:09;98250.88;;;8.55;83.09
62011;BME280;47967;51.756;10.174;2023-04-12T20:41:12;98237.06;;;8.52;83.22
62011;BME280;47967;51.756;10.174;2023-04-12T20:45:15;98233.81;;;8.49;83.42
62011;BME280;47967;51.756;10.174;2023-04-12T20:49:20;98218.13;;;8.40;83.36
62011;BME280;47967;51.756;10.174;2023-04-12T20:53:26;98227.69;;;8.36;83.03
62011;BME280;47967;51.756;10.174;2023-04-12T20:57:30;98225.63;;;8.19;83.17
